createdAt,value
2016-05-26T00:00:42.215Z,18.93
2016-05-26T00:01:42.373Z,19.02
2016-05-26T00:02:42.220Z,18.97
2016-05-26T00:03:42.206Z,18.97
2016-05-26T00:04:42.398Z,18.99
2016-05-26T00:05:41.993Z,18.97
2016-05-26T00:06:42.200Z,18.9
2016-05-26T00:07:42.358Z,18.9
2016-05-26T00:08:42.376Z,18.89
2016-05-26T00:09:42.145Z,18.91
2016-05-26T00:10:42.350Z,18.89
2016-05-26T00:11:42.181Z,18.91
2016-05-26T00:12:42.168Z,18.91
2016-05-26T00:13:42.389Z,18.91
2016-05-26T00:14:42.175Z,18.91
2016-05-26T00:15:42.333Z,18.97
2016-05-26T00:16:42.023Z,18.97
2016-05-26T00:17:41.979Z,19
2016-05-26T00:18:41.950Z,19
2016-05-26T00:19:42.531Z,18.99
2016-05-26T00:20:42.316Z,18.97
2016-05-26T00:21:42.505Z,18.99
2016-05-26T00:22:42.305Z,18.96
2016-05-26T00:23:41.886Z,18.99
2016-05-26T00:24:42.123Z,18.89
2016-05-26T00:25:42.516Z,18.9
2016-05-26T00:26:42.096Z,18.89
2016-05-26T00:27:42.131Z,18.86
2016-05-26T00:28:42.087Z,18.91
2016-05-26T00:29:42.089Z,18.9
2016-05-26T00:30:42.279Z,18.87
2016-05-26T00:31:42.079Z,18.96
2016-05-26T00:32:42.128Z,18.93
2016-05-26T00:33:42.475Z,18.9
2016-05-26T00:34:42.275Z,18.84
2016-05-26T00:35:42.278Z,18.79
2016-05-26T00:36:42.468Z,18.76
2016-05-26T00:37:42.252Z,18.86
2016-05-26T00:38:42.457Z,18.87
2016-05-26T00:39:41.851Z,18.76
2016-05-26T00:40:42.259Z,18.81
2016-05-26T00:41:41.903Z,18.86
2016-05-26T00:42:42.250Z,18.82
2016-05-26T00:43:42.033Z,18.86
2016-05-26T00:44:41.880Z,18.81
2016-05-26T00:45:42.225Z,18.79
2016-05-26T00:46:42.103Z,18.78
2016-05-26T00:47:42.466Z,18.78
2016-05-26T00:48:41.828Z,18.82
2016-05-26T00:49:42.221Z,18.76
2016-05-26T00:50:42.208Z,18.78
2016-05-26T00:51:42.414Z,18.82
2016-05-26T00:52:42.416Z,18.84
2016-05-26T00:53:42.013Z,18.81
2016-05-26T00:54:42.407Z,18.84
2016-05-26T00:55:42.409Z,18.81
2016-05-26T00:56:42.209Z,18.76
2016-05-26T00:57:41.790Z,18.79
2016-05-26T00:58:42.199Z,18.84
2016-05-26T00:59:41.982Z,18.79
2016-05-26T01:00:41.985Z,18.86
2016-05-26T01:01:42.223Z,18.76
2016-05-26T01:02:42.037Z,18.82
2016-05-26T01:03:42.243Z,18.84
2016-05-26T01:04:42.387Z,18.87
2016-05-26T01:05:42.171Z,18.81
2016-05-26T01:06:42.392Z,18.93
2016-05-26T01:07:42.176Z,18.9
2016-05-26T01:08:42.006Z,18.9
2016-05-26T01:09:41.947Z,18.86
2016-05-26T01:10:42.153Z,18.86
2016-05-26T01:11:42.358Z,18.84
2016-05-26T01:12:42.143Z,18.86
2016-05-26T01:13:41.942Z,18.84
2016-05-26T01:14:42.132Z,18.82
2016-05-26T01:15:42.135Z,18.81
2016-05-26T01:16:41.731Z,18.79
2016-05-26T01:17:41.781Z,18.79
2016-05-26T01:18:42.127Z,18.81
2016-05-26T01:19:42.146Z,18.78
2016-05-26T01:20:41.914Z,18.78
2016-05-26T01:21:42.323Z,18.82
2016-05-26T01:22:42.169Z,18.82
2016-05-26T01:23:42.156Z,18.81
2016-05-26T01:24:41.910Z,18.79
2016-05-26T01:25:41.896Z,18.79
2016-05-26T01:26:42.102Z,18.76
2016-05-26T01:27:41.901Z,18.76
2016-05-26T01:28:41.685Z,18.76
2016-05-26T01:29:42.094Z,18.84
2016-05-26T01:30:42.096Z,18.81
2016-05-26T01:31:42.085Z,18.79
2016-05-26T01:32:41.946Z,18.78
2016-05-26T01:33:42.074Z,18.79
2016-05-26T01:34:41.529Z,18.81
2016-05-26T01:35:42.079Z,18.74
2016-05-26T01:36:42.270Z,18.72
2016-05-26T01:37:41.695Z,18.79
2016-05-26T01:38:41.854Z,18.74
2016-05-26T01:39:42.106Z,18.71
2016-05-26T01:40:42.062Z,18.75
2016-05-26T01:41:41.642Z,18.76
2016-05-26T01:42:41.708Z,18.72
2016-05-26T01:43:41.851Z,18.71
2016-05-26T01:44:41.634Z,18.76
2016-05-26T01:45:42.044Z,18.72
2016-05-26T01:46:42.233Z,18.74
2016-05-26T01:47:42.283Z,18.68
2016-05-26T01:48:42.036Z,18.68
2016-05-26T01:49:41.616Z,18.68
2016-05-26T01:50:42.229Z,18.72
2016-05-26T01:51:42.216Z,18.71
2016-05-26T01:52:42.016Z,18.68
2016-05-26T01:53:42.222Z,18.59
2016-05-26T01:54:41.802Z,18.61
2016-05-26T01:55:41.805Z,18.71
2016-05-26T01:56:42.011Z,18.71
2016-05-26T01:57:42.202Z,18.65
2016-05-26T01:58:42.001Z,18.74
2016-05-26T01:59:42.207Z,18.66
2016-05-26T02:00:42.037Z,18.71
2016-05-26T02:01:41.993Z,18.72
2016-05-26T02:02:41.777Z,18.66
2016-05-26T02:03:41.998Z,18.72
2016-05-26T02:04:41.985Z,18.68
2016-05-26T02:05:42.190Z,18.65
2016-05-26T02:06:41.773Z,18.69
2016-05-26T02:07:42.009Z,18.68
2016-05-26T02:08:41.965Z,18.68
2016-05-26T02:09:41.655Z,18.71
2016-05-26T02:10:42.173Z,18.65
2016-05-26T02:11:42.161Z,18.6
2016-05-26T02:12:41.553Z,18.65
2016-05-26T02:13:41.948Z,18.63
2016-05-26T02:14:41.950Z,18.61
2016-05-26T02:15:41.749Z,18.69
2016-05-26T02:16:41.736Z,18.61
2016-05-26T02:17:42.723Z,18.63
2016-05-26T02:18:41.930Z,18.63
2016-05-26T02:19:41.370Z,18.66
2016-05-26T02:20:42.122Z,18.61
2016-05-26T02:21:41.922Z,18.65
2016-05-26T02:22:41.925Z,18.61
2016-05-26T02:23:42.114Z,18.65
2016-05-26T02:24:41.758Z,18.65
2016-05-26T02:25:42.119Z,18.61
2016-05-26T02:26:41.966Z,18.61
2016-05-26T02:27:41.704Z,18.59
2016-05-26T02:28:41.752Z,18.63
2016-05-26T02:29:41.334Z,18.63
2016-05-26T02:30:42.118Z,18.68
2016-05-26T02:31:42.104Z,18.65
2016-05-26T02:32:42.467Z,18.63
2016-05-26T02:33:41.938Z,18.66
2016-05-26T02:34:41.879Z,18.54
2016-05-26T02:35:41.710Z,18.6
2016-05-26T02:36:41.665Z,18.65
2016-05-26T02:37:41.668Z,18.56
2016-05-26T02:38:41.874Z,18.63
2016-05-26T02:39:41.861Z,18.54
2016-05-26T02:40:42.067Z,18.56
2016-05-26T02:41:41.351Z,18.56
2016-05-26T02:42:42.056Z,18.54
2016-05-26T02:43:41.840Z,18.56
2016-05-26T02:44:41.890Z,18.54
2016-05-26T02:45:41.845Z,18.56
2016-05-26T02:46:42.098Z,18.54
2016-05-26T02:47:41.866Z,18.54
2016-05-26T02:48:41.838Z,18.57
2016-05-26T02:49:41.606Z,18.53
2016-05-26T02:50:41.733Z,18.56
2016-05-26T02:51:41.924Z,18.56
2016-05-26T02:52:41.708Z,18.56
2016-05-26T02:53:41.930Z,18.51
2016-05-26T02:54:41.980Z,18.54
2016-05-26T02:55:41.608Z,18.53
2016-05-26T02:56:41.249Z,18.56
2016-05-26T02:57:41.800Z,18.6
2016-05-26T02:58:42.006Z,18.6
2016-05-26T02:59:41.602Z,18.56
2016-05-26T03:00:41.793Z,18.59
2016-05-26T03:01:41.795Z,18.54
2016-05-26T03:02:42.204Z,18.53
2016-05-26T03:03:41.410Z,18.51
2016-05-26T03:04:41.584Z,18.59
2016-05-26T03:05:41.571Z,18.54
2016-05-26T03:06:41.574Z,18.51
2016-05-26T03:07:41.967Z,18.54
2016-05-26T03:08:41.768Z,18.56
2016-05-26T03:09:41.770Z,18.53
2016-05-26T03:10:41.553Z,18.44
2016-05-26T03:11:41.556Z,18.51
2016-05-26T03:12:41.762Z,18.56
2016-05-26T03:13:41.593Z,18.57
2016-05-26T03:14:41.752Z,18.54
2016-05-26T03:15:41.942Z,18.53
2016-05-26T03:16:41.586Z,18.5
2016-05-26T03:17:42.276Z,18.53
2016-05-26T03:18:41.934Z,18.53
2016-05-26T03:19:41.750Z,18.53
2016-05-26T03:20:41.314Z,18.49
2016-05-26T03:21:41.520Z,18.5
2016-05-26T03:22:41.523Z,18.47
2016-05-26T03:23:41.916Z,18.47
2016-05-26T03:24:41.294Z,18.51
2016-05-26T03:25:41.500Z,18.44
2016-05-26T03:26:41.705Z,18.47
2016-05-26T03:27:41.302Z,18.53
2016-05-26T03:28:41.914Z,18.47
2016-05-26T03:29:41.699Z,18.51
2016-05-26T03:30:41.888Z,18.47
2016-05-26T03:31:41.329Z,18.51
2016-05-26T03:32:42.019Z,18.51
2016-05-26T03:33:41.678Z,18.56
2016-05-26T03:34:41.868Z,18.44
2016-05-26T03:35:41.729Z,18.51
2016-05-26T03:36:41.327Z,18.44
2016-05-26T03:37:41.876Z,18.47
2016-05-26T03:38:41.660Z,18.36
2016-05-26T03:39:41.256Z,18.53
2016-05-26T03:40:41.853Z,18.53
2016-05-26T03:41:41.496Z,18.44
2016-05-26T03:42:41.873Z,18.41
2016-05-26T03:43:41.861Z,18.49
2016-05-26T03:44:41.645Z,18.41
2016-05-26T03:45:41.647Z,18.47
2016-05-26T03:46:41.837Z,18.47
2016-05-26T03:47:42.028Z,18.44
2016-05-26T03:48:41.625Z,18.41
2016-05-26T03:49:41.831Z,18.49
2016-05-26T03:50:41.208Z,18.42
2016-05-26T03:51:41.211Z,18.34
2016-05-26T03:52:41.463Z,18.47
2016-05-26T03:53:41.606Z,18.35
2016-05-26T03:54:41.625Z,18.31
2016-05-26T03:55:41.816Z,18.31
2016-05-26T03:56:41.458Z,18.29
2016-05-26T03:57:41.399Z,18.23
2016-05-26T03:58:41.588Z,18.31
2016-05-26T03:59:41.591Z,18.27
2016-05-26T04:00:41.219Z,18.26
2016-05-26T04:01:41.378Z,18.27
2016-05-26T04:02:41.068Z,18.32
2016-05-26T04:03:41.587Z,18.29
2016-05-26T04:04:41.418Z,18.35
2016-05-26T04:05:41.577Z,18.31
2016-05-26T04:06:41.360Z,18.26
2016-05-26T04:07:41.410Z,18.31
2016-05-26T04:08:41.554Z,18.35
2016-05-26T04:09:41.556Z,18.36
2016-05-26T04:10:41.559Z,18.27
2016-05-26T04:11:41.545Z,18.29
2016-05-26T04:12:41.376Z,18.34
2016-05-26T04:13:41.551Z,18.29
2016-05-26T04:14:41.538Z,18.32
2016-05-26T04:15:41.572Z,18.34
2016-05-26T04:16:41.325Z,18.34
2016-05-26T04:17:42.264Z,18.27
2016-05-26T04:18:41.362Z,18.34
2016-05-26T04:19:41.521Z,18.27
2016-05-26T04:20:41.507Z,18.26
2016-05-26T04:21:41.510Z,18.34
2016-05-26T04:22:41.513Z,18.32
2016-05-26T04:23:41.297Z,18.32
2016-05-26T04:24:41.503Z,18.34
2016-05-26T04:25:41.505Z,18.31
2016-05-26T04:26:41.492Z,18.35
2016-05-26T04:27:41.277Z,18.32
2016-05-26T04:28:41.497Z,18.34
2016-05-26T04:29:41.469Z,18.35
2016-05-26T04:30:41.488Z,18.29
2016-05-26T04:31:41.474Z,18.38
2016-05-26T04:32:41.336Z,18.21
2016-05-26T04:33:41.527Z,18.32
2016-05-26T04:34:41.545Z,18.24
2016-05-26T04:35:41.469Z,18.24
2016-05-26T04:36:41.675Z,18.26
2016-05-26T04:37:40.944Z,18.2
2016-05-26T04:38:41.260Z,18.34
2016-05-26T04:39:41.293Z,18.24
2016-05-26T04:40:41.046Z,18.17
2016-05-26T04:41:41.439Z,18.2
2016-05-26T04:42:41.426Z,18.21
2016-05-26T04:43:41.116Z,18.24
2016-05-26T04:44:41.243Z,18.21
2016-05-26T04:45:41.621Z,18.26
2016-05-26T04:46:41.234Z,18.21
2016-05-26T04:47:41.392Z,18.21
2016-05-26T04:48:41.411Z,18.27
2016-05-26T04:49:41.211Z,18.17
2016-05-26T04:50:41.056Z,18.2
2016-05-26T04:51:41.247Z,18.27
2016-05-26T04:52:41.000Z,18.2
2016-05-26T04:53:41.253Z,18.19
2016-05-26T04:54:41.396Z,18.23
2016-05-26T04:55:41.179Z,18.23
2016-05-26T04:56:41.183Z,18.16
2016-05-26T04:57:41.233Z,18.14
2016-05-26T04:58:41.235Z,18.16
2016-05-26T04:59:41.175Z,18.24
2016-05-26T05:00:41.365Z,18.14
2016-05-26T05:01:41.149Z,18.17
2016-05-26T05:02:41.058Z,18.21
2016-05-26T05:03:41.357Z,18.21
2016-05-26T05:04:41.157Z,18.16
2016-05-26T05:05:41.409Z,18.24
2016-05-26T05:06:41.349Z,18.23
2016-05-26T05:07:41.353Z,18.16
2016-05-26T05:08:41.137Z,18.14
2016-05-26T05:09:41.342Z,18.24
2016-05-26T05:10:41.329Z,18.16
2016-05-26T05:11:41.316Z,18.16
2016-05-26T05:12:41.319Z,18.19
2016-05-26T05:13:41.322Z,18.19
2016-05-26T05:14:41.106Z,18.17
2016-05-26T05:15:41.327Z,18.13
2016-05-26T05:16:41.518Z,18.14
2016-05-26T05:17:41.457Z,18.11
2016-05-26T05:18:41.584Z,18.11
2016-05-26T05:19:41.291Z,18.06
2016-05-26T05:20:41.137Z,18.1
2016-05-26T05:21:41.281Z,18.11
2016-05-26T05:22:41.345Z,18.19
2016-05-26T05:23:41.490Z,18.11
2016-05-26T05:24:41.273Z,18.05
2016-05-26T05:25:41.478Z,18.1
2016-05-26T05:26:41.075Z,18.08
2016-05-26T05:27:41.266Z,18.19
2016-05-26T05:28:41.066Z,18.17
2016-05-26T05:29:41.256Z,18.11
2016-05-26T05:30:41.258Z,18.05
2016-05-26T05:31:41.058Z,18.13
2016-05-26T05:32:41.608Z,18.13
2016-05-26T05:33:41.329Z,18.21
2016-05-26T05:34:41.238Z,18.16
2016-05-26T05:35:41.241Z,18.13
2016-05-26T05:36:41.258Z,18.14
2016-05-26T05:37:41.230Z,18.11
2016-05-26T05:38:41.076Z,18.08
2016-05-26T05:39:41.220Z,18.05
2016-05-26T05:40:41.223Z,18.11
2016-05-26T05:41:41.226Z,18.14
2016-05-26T05:42:40.806Z,18.17
2016-05-26T05:43:41.418Z,18.13
2016-05-26T05:44:41.217Z,18.03
2016-05-26T05:45:41.407Z,18.14
2016-05-26T05:46:41.004Z,18.13
2016-05-26T05:47:41.132Z,18.16
2016-05-26T05:48:41.276Z,18.14
2016-05-26T05:49:41.200Z,18.17
2016-05-26T05:50:41.390Z,18.19
2016-05-26T05:51:40.987Z,18.19
2016-05-26T05:52:40.973Z,18.16
2016-05-26T05:53:42.116Z,18.17
2016-05-26T05:54:41.385Z,18.2
2016-05-26T05:55:41.169Z,18.26
2016-05-26T05:56:41.172Z,18.17
2016-05-26T05:57:40.955Z,18.2
2016-05-26T05:58:41.161Z,18.21
2016-05-26T05:59:41.164Z,18.23
2016-05-26T06:00:41.151Z,18.2
2016-05-26T06:01:40.842Z,18.27
2016-05-26T06:02:41.141Z,18.24
2016-05-26T06:03:40.660Z,18.16
2016-05-26T06:04:40.709Z,18.2
2016-05-26T06:05:41.133Z,18.19
2016-05-26T06:06:41.121Z,18.31
2016-05-26T06:07:40.920Z,18.2
2016-05-26T06:08:41.126Z,18.19
2016-05-26T06:09:41.113Z,18.35
2016-05-26T06:10:40.913Z,18.31
2016-05-26T06:11:41.165Z,18.24
2016-05-26T06:12:40.949Z,18.31
2016-05-26T06:13:41.108Z,18.26
2016-05-26T06:14:40.939Z,18.34
2016-05-26T06:15:41.301Z,18.23
2016-05-26T06:16:41.084Z,18.36
2016-05-26T06:17:40.931Z,18.34
2016-05-26T06:18:41.888Z,18.29
2016-05-26T06:19:41.281Z,18.32
2016-05-26T06:20:40.877Z,18.29
2016-05-26T06:21:40.879Z,18.32
2016-05-26T06:22:40.648Z,18.49
2016-05-26T06:23:41.276Z,18.49
2016-05-26T06:24:40.856Z,18.47
2016-05-26T06:25:40.844Z,18.47
2016-05-26T06:26:40.847Z,18.49
2016-05-26T06:27:41.255Z,18.5
2016-05-26T06:28:41.039Z,18.47
2016-05-26T06:29:41.089Z,18.45
2016-05-26T06:30:41.044Z,18.44
2016-05-26T06:31:41.235Z,18.39
2016-05-26T06:32:41.316Z,18.53
2016-05-26T06:33:41.083Z,18.47
2016-05-26T06:34:40.836Z,18.47
2016-05-26T06:35:40.635Z,18.44
2016-05-26T06:36:41.216Z,18.42
2016-05-26T06:37:41.220Z,18.47
2016-05-26T06:38:41.004Z,18.49
2016-05-26T06:39:41.007Z,18.44
2016-05-26T06:40:40.993Z,18.49
2016-05-26T06:41:40.590Z,18.45
2016-05-26T06:42:40.796Z,18.47
2016-05-26T06:43:40.986Z,18.49
2016-05-26T06:44:41.004Z,18.49
2016-05-26T06:45:40.788Z,18.53
2016-05-26T06:46:40.979Z,18.5
2016-05-26T06:47:41.184Z,18.53
2016-05-26T06:48:41.046Z,18.47
2016-05-26T06:49:40.986Z,18.53
2016-05-26T06:50:40.770Z,18.54
2016-05-26T06:51:40.820Z,18.54
2016-05-26T06:52:40.948Z,18.57
2016-05-26T06:53:41.153Z,18.59
2016-05-26T06:54:40.749Z,18.59
2016-05-26T06:55:40.940Z,18.61
2016-05-26T06:56:40.802Z,18.68
2016-05-26T06:57:41.148Z,18.68
2016-05-26T06:58:40.792Z,18.66
2016-05-26T06:59:40.981Z,18.69
2016-05-26T07:00:40.719Z,18.72
2016-05-26T07:01:40.753Z,18.71
2016-05-26T07:02:40.756Z,18.75
2016-05-26T07:03:40.555Z,18.82
2016-05-26T07:04:40.714Z,18.86
2016-05-26T07:05:41.108Z,18.84
2016-05-26T07:06:40.704Z,18.94
2016-05-26T07:07:40.910Z,18.86
2016-05-26T07:08:40.896Z,18.78
2016-05-26T07:09:40.493Z,18.81
2016-05-26T07:10:40.683Z,18.91
2016-05-26T07:11:40.529Z,18.86
2016-05-26T07:12:40.891Z,18.81
2016-05-26T07:13:40.879Z,18.86
2016-05-26T07:14:40.351Z,18.87
2016-05-26T07:15:40.681Z,19.02
2016-05-26T07:16:41.074Z,18.99
2016-05-26T07:17:40.436Z,18.96
2016-05-26T07:18:41.455Z,18.99
2016-05-26T07:19:40.849Z,19
2016-05-26T07:20:40.867Z,19.09
2016-05-26T07:21:40.713Z,19.07
2016-05-26T07:22:41.059Z,19.07
2016-05-26T07:23:40.500Z,19.06
2016-05-26T07:24:40.643Z,19.12
2016-05-26T07:25:40.833Z,19.07
2016-05-26T07:26:40.648Z,19.15
2016-05-26T07:27:40.667Z,19.1
2016-05-26T07:28:41.028Z,19.12
2016-05-26T07:29:40.625Z,19.2
2016-05-26T07:30:40.627Z,19.25
2016-05-26T07:31:40.864Z,19.23
2016-05-26T07:32:40.820Z,19.28
2016-05-26T07:33:41.480Z,19.27
2016-05-26T07:34:40.810Z,19.28
2016-05-26T07:35:40.641Z,19.43
2016-05-26T07:36:40.237Z,19.32
2016-05-26T07:37:40.614Z,19.35
2016-05-26T07:38:40.845Z,19.4
2016-05-26T07:39:40.435Z,19.37
2016-05-26T07:40:40.666Z,19.46
2016-05-26T07:41:40.537Z,19.4
2016-05-26T07:42:40.962Z,19.38
2016-05-26T07:43:40.911Z,19.49
2016-05-26T07:44:40.719Z,19.47
2016-05-26T07:45:40.511Z,19.49
2016-05-26T07:46:40.914Z,19.56
2016-05-26T07:47:41.407Z,19.57
2016-05-26T07:48:40.584Z,19.52
2016-05-26T07:49:41.123Z,19.55
2016-05-26T07:50:40.722Z,19.55
2016-05-26T07:51:40.619Z,19.6
2016-05-26T07:52:40.765Z,19.61
2016-05-26T07:53:40.722Z,19.57
2016-05-26T07:54:40.928Z,19.56
2016-05-26T07:55:40.714Z,19.55
2016-05-26T07:56:40.921Z,19.55
2016-05-26T07:57:40.721Z,19.53
2016-05-26T07:58:40.754Z,19.53
2016-05-26T07:59:40.899Z,19.63
2016-05-26T08:00:40.902Z,19.7
2016-05-26T08:01:40.701Z,19.67
2016-05-26T08:02:40.486Z,19.61
2016-05-26T08:03:40.941Z,19.7
2016-05-26T08:04:40.725Z,19.67
2016-05-26T08:05:40.885Z,19.78
2016-05-26T08:06:40.888Z,19.68
2016-05-26T08:07:40.530Z,19.71
2016-05-26T08:08:40.751Z,19.67
2016-05-26T08:09:40.677Z,19.74
2016-05-26T08:10:40.664Z,19.79
2016-05-26T08:11:40.885Z,19.79
2016-05-26T08:12:40.701Z,19.75
2016-05-26T08:13:40.874Z,19.78
2016-05-26T08:14:41.049Z,19.8
2016-05-26T08:15:41.052Z,19.8
2016-05-26T08:16:40.837Z,19.83
2016-05-26T08:17:40.651Z,19.78
2016-05-26T08:18:40.856Z,19.79
2016-05-26T08:19:40.673Z,19.87
2016-05-26T08:20:40.628Z,19.87
2016-05-26T08:21:40.834Z,20
2016-05-26T08:22:40.633Z,20.02
2016-05-26T08:23:41.026Z,20
2016-05-26T08:24:40.623Z,19.95
2016-05-26T08:25:40.656Z,19.95
2016-05-26T08:26:40.613Z,19.97
2016-05-26T08:27:40.616Z,19.89
2016-05-26T08:28:40.821Z,20.05
2016-05-26T08:29:40.605Z,20.07
2016-05-26T08:30:40.795Z,20.02
2016-05-26T08:31:40.797Z,20
2016-05-26T08:32:40.582Z,20.08
2016-05-26T08:33:40.789Z,20.05
2016-05-26T08:34:40.587Z,20.01
2016-05-26T08:35:40.793Z,20.04
2016-05-26T08:36:40.577Z,20.08
2016-05-26T08:37:40.768Z,20.02
2016-05-26T08:38:40.567Z,20.08
2016-05-26T08:39:40.977Z,20.08
2016-05-26T08:40:40.821Z,20.07
2016-05-26T08:41:40.404Z,20.15
2016-05-26T08:42:40.563Z,20.15
2016-05-26T08:43:40.971Z,20.19
2016-05-26T08:44:40.552Z,20.19
2016-05-26T08:45:40.554Z,20.2
2016-05-26T08:46:40.745Z,20.19
2016-05-26T08:47:40.748Z,20.22
2016-05-26T08:48:40.985Z,20.18
2016-05-26T08:49:40.331Z,20.25
2016-05-26T08:50:40.537Z,20.22
2016-05-26T08:51:40.524Z,20.2
2016-05-26T08:52:40.776Z,20.26
2016-05-26T08:53:40.717Z,20.22
2016-05-26T08:54:40.719Z,20.3
2016-05-26T08:55:40.941Z,20.25
2016-05-26T08:56:40.725Z,20.23
2016-05-26T08:57:40.509Z,20.25
2016-05-26T08:58:40.917Z,20.22
2016-05-26T08:59:40.311Z,20.29
2016-05-26T09:00:40.705Z,20.26
2016-05-26T09:01:40.503Z,20.35
2016-05-26T09:02:40.506Z,20.25
2016-05-26T09:03:41.884Z,20.3
2016-05-26T09:04:40.699Z,20.32
2016-05-26T09:05:40.327Z,20.26
2016-05-26T09:06:40.486Z,20.23
2016-05-26T09:07:40.129Z,20.23
2016-05-26T09:08:40.694Z,20.25
2016-05-26T09:09:40.885Z,20.27
2016-05-26T09:10:40.684Z,20.25
2016-05-26T09:11:40.874Z,20.3
2016-05-26T09:12:40.455Z,20.25
2016-05-26T09:13:40.489Z,20.29
2016-05-26T09:14:40.663Z,20.27
2016-05-26T09:15:40.557Z,20.29
2016-05-26T09:16:40.669Z,20.3
2016-05-26T09:17:40.453Z,20.25
2016-05-26T09:18:40.799Z,20.29
2016-05-26T09:19:40.646Z,20.29
2016-05-26T09:20:40.242Z,20.3
2016-05-26T09:21:40.651Z,20.34
2016-05-26T09:22:40.639Z,20.29
2016-05-26T09:23:40.267Z,20.35
2016-05-26T09:24:40.832Z,20.34
2016-05-26T09:25:40.442Z,20.38
2016-05-26T09:26:40.634Z,20.35
2016-05-26T09:27:40.261Z,20.41
2016-05-26T09:28:40.420Z,20.44
2016-05-26T09:29:40.454Z,20.4
2016-05-26T09:30:40.426Z,20.4
2016-05-26T09:31:40.819Z,20.53
2016-05-26T09:32:40.416Z,20.42
2016-05-26T09:33:40.653Z,20.51
2016-05-26T09:34:40.389Z,20.42
2016-05-26T09:35:40.392Z,20.53
2016-05-26T09:36:40.597Z,20.56
2016-05-26T09:37:40.397Z,20.49
2016-05-26T09:38:40.791Z,20.53
2016-05-26T09:39:40.810Z,20.61
2016-05-26T09:40:40.593Z,20.56
2016-05-26T09:41:40.596Z,20.54
2016-05-26T09:42:40.583Z,20.67
2016-05-26T09:43:40.632Z,20.71
2016-05-26T09:44:40.588Z,20.71
2016-05-26T09:45:40.419Z,20.63
2016-05-26T09:46:40.563Z,20.64
2016-05-26T09:47:40.221Z,20.71
2016-05-26T09:48:40.880Z,20.75
2016-05-26T09:49:40.149Z,20.71
2016-05-26T09:50:40.589Z,20.64
2016-05-26T09:51:40.560Z,20.66
2016-05-26T09:52:40.562Z,20.71
2016-05-26T09:53:40.551Z,20.71
2016-05-26T09:54:40.350Z,20.67
2016-05-26T09:55:40.399Z,20.72
2016-05-26T09:56:40.558Z,20.85
2016-05-26T09:57:40.545Z,20.78
2016-05-26T09:58:40.548Z,20.81
2016-05-26T09:59:40.332Z,20.81
2016-05-26T10:00:40.116Z,20.82
2016-05-26T10:01:40.337Z,20.82
2016-05-26T10:02:40.339Z,20.81
2016-05-26T10:03:41.202Z,20.78
2016-05-26T10:04:39.970Z,20.78
2016-05-26T10:05:40.520Z,20.82
2016-05-26T10:06:40.522Z,20.82
2016-05-26T10:07:40.525Z,20.85
2016-05-26T10:08:40.731Z,20.86
2016-05-26T10:09:40.155Z,20.85
2016-05-26T10:10:40.111Z,20.85
2016-05-26T10:11:40.114Z,20.82
2016-05-26T10:12:40.305Z,20.85
2016-05-26T10:13:40.510Z,20.88
2016-05-26T10:14:40.513Z,20.9
2016-05-26T10:15:40.703Z,20.86
2016-05-26T10:16:40.299Z,20.96
2016-05-26T10:17:40.348Z,20.94
2016-05-26T10:18:40.743Z,20.91
2016-05-26T10:19:40.495Z,20.88
2016-05-26T10:20:40.498Z,20.98
2016-05-26T10:21:40.484Z,20.94
2016-05-26T10:22:40.487Z,20.91
2016-05-26T10:23:40.271Z,20.96
2016-05-26T10:24:40.134Z,21.04
2016-05-26T10:25:40.276Z,20.98
2016-05-26T10:26:40.686Z,21
2016-05-26T10:27:40.501Z,21
2016-05-26T10:28:40.270Z,21.04
2016-05-26T10:29:40.475Z,21
2016-05-26T10:30:40.306Z,21.04
2016-05-26T10:31:40.464Z,21.01
2016-05-26T10:32:40.686Z,21.01
2016-05-26T10:33:41.470Z,20.96
2016-05-26T10:34:40.316Z,21.01
2016-05-26T10:35:40.460Z,21.04
2016-05-26T10:36:40.649Z,21.03
2016-05-26T10:37:40.450Z,21.01
2016-05-26T10:38:40.249Z,20.98
2016-05-26T10:39:40.455Z,21.03
2016-05-26T10:40:40.458Z,21.06
2016-05-26T10:41:40.444Z,21.06
2016-05-26T10:42:40.041Z,21.09
2016-05-26T10:43:40.637Z,21.01
2016-05-26T10:44:40.640Z,21.06
2016-05-26T10:45:40.238Z,21.06
2016-05-26T10:46:40.443Z,21.08
2016-05-26T10:47:40.227Z,21.06
2016-05-26T10:48:40.620Z,21.11
2016-05-26T10:49:40.232Z,21.13
2016-05-26T10:50:40.078Z,21.18
2016-05-26T10:51:40.222Z,21.22
2016-05-26T10:52:40.412Z,21.15
2016-05-26T10:53:40.415Z,21.16
2016-05-26T10:54:40.417Z,21.25
2016-05-26T10:55:40.217Z,21.3
2016-05-26T10:56:40.219Z,21.27
2016-05-26T10:57:39.909Z,21.18
2016-05-26T10:58:40.600Z,21.21
2016-05-26T10:59:40.603Z,21.27
2016-05-26T11:00:40.605Z,21.21
2016-05-26T11:01:40.186Z,21.34
2016-05-26T11:02:39.986Z,21.31
2016-05-26T11:03:39.988Z,21.31
2016-05-26T11:04:40.413Z,21.28
2016-05-26T11:05:39.822Z,21.27
2016-05-26T11:06:40.606Z,21.31
2016-05-26T11:07:40.186Z,21.27
2016-05-26T11:08:40.580Z,21.23
2016-05-26T11:09:40.380Z,21.23
2016-05-26T11:10:40.225Z,21.22
2016-05-26T11:11:39.978Z,21.23
2016-05-26T11:12:40.372Z,21.25
2016-05-26T11:13:40.374Z,21.28
2016-05-26T11:14:40.221Z,21.3
2016-05-26T11:15:40.067Z,21.34
2016-05-26T11:16:40.163Z,21.23
2016-05-26T11:17:40.369Z,21.27
2016-05-26T11:18:40.247Z,21.3
2016-05-26T11:19:40.375Z,21.3
2016-05-26T11:20:40.565Z,21.22
2016-05-26T11:21:40.365Z,21.27
2016-05-26T11:22:40.352Z,21.36
2016-05-26T11:23:40.573Z,21.31
2016-05-26T11:24:40.357Z,21.3
2016-05-26T11:25:40.345Z,21.3
2016-05-26T11:26:39.784Z,21.36
2016-05-26T11:27:40.146Z,21.34
2016-05-26T11:28:40.555Z,21.34
2016-05-26T11:29:40.340Z,21.33
2016-05-26T11:30:40.342Z,21.31
2016-05-26T11:31:40.032Z,21.31
2016-05-26T11:32:39.972Z,21.3
2016-05-26T11:33:40.006Z,21.34
2016-05-26T11:34:40.540Z,21.37
2016-05-26T11:35:40.559Z,21.3
2016-05-26T11:36:40.530Z,21.41
2016-05-26T11:37:39.970Z,21.38
2016-05-26T11:38:40.536Z,21.43
2016-05-26T11:39:39.975Z,21.41
2016-05-26T11:40:40.338Z,21.46
2016-05-26T11:41:39.919Z,21.4
2016-05-26T11:42:40.531Z,21.41
2016-05-26T11:43:40.330Z,21.45
2016-05-26T11:44:40.333Z,21.4
2016-05-26T11:45:40.335Z,21.46
2016-05-26T11:46:41.916Z,21.49
2016-05-26T11:47:40.810Z,21.49
2016-05-26T11:48:40.110Z,21.49
2016-05-26T11:49:40.299Z,21.43
2016-05-26T11:50:40.318Z,21.45
2016-05-26T11:51:40.305Z,21.45
2016-05-26T11:52:40.324Z,21.41
2016-05-26T11:53:39.748Z,21.45
2016-05-26T11:54:40.141Z,21.41
2016-05-26T11:55:40.112Z,21.28
2016-05-26T11:56:40.147Z,21.34
2016-05-26T11:57:41.868Z,21.31
2016-05-26T11:58:40.308Z,21.33
2016-05-26T11:59:40.890Z,21.36
2016-05-26T12:00:40.017Z,21.41
2016-05-26T12:01:40.081Z,21.34
2016-05-26T12:02:39.928Z,21.48
2016-05-26T12:03:41.822Z,21.46
2016-05-26T12:04:40.856Z,21.46
2016-05-26T12:05:41.702Z,21.46
2016-05-26T12:06:40.783Z,21.51
2016-05-26T12:07:40.629Z,21.53
2016-05-26T12:08:40.366Z,21.51
2016-05-26T12:09:40.339Z,21.49
2016-05-26T12:10:41.012Z,21.52
2016-05-26T12:11:40.093Z,21.48
2016-05-26T12:12:40.486Z,21.55
2016-05-26T12:13:40.270Z,21.51
2016-05-26T12:14:40.289Z,21.53
2016-05-26T12:15:40.275Z,21.46
2016-05-26T12:16:40.482Z,21.4
2016-05-26T12:17:40.077Z,21.43
2016-05-26T12:18:39.971Z,21.46
2016-05-26T12:19:40.068Z,21.49
2016-05-26T12:20:40.071Z,21.52
2016-05-26T12:21:39.932Z,21.55
2016-05-26T12:22:39.904Z,21.66
2016-05-26T12:23:40.265Z,21.61
2016-05-26T12:24:40.269Z,21.66
2016-05-26T12:25:40.271Z,21.49
2016-05-26T12:26:40.258Z,21.48
2016-05-26T12:27:40.480Z,21.51
2016-05-26T12:28:40.467Z,21.55
2016-05-26T12:29:40.454Z,21.48
2016-05-26T12:30:41.707Z,21.51
2016-05-26T12:31:40.053Z,21.48
2016-05-26T12:32:40.259Z,21.43
2016-05-26T12:33:40.356Z,21.46
2016-05-26T12:34:40.046Z,21.49
2016-05-26T12:35:40.048Z,21.53
2016-05-26T12:36:40.081Z,21.49
2016-05-26T12:37:40.039Z,21.45
2016-05-26T12:38:40.245Z,21.49
2016-05-26T12:39:40.247Z,21.53
2016-05-26T12:40:39.672Z,21.51
2016-05-26T12:41:40.439Z,21.66
2016-05-26T12:42:40.239Z,21.61
2016-05-26T12:43:39.882Z,21.64
2016-05-26T12:44:40.448Z,21.66
2016-05-26T12:45:40.231Z,21.62
2016-05-26T12:46:40.031Z,21.7
2016-05-26T12:47:40.080Z,21.62
2016-05-26T12:48:40.568Z,21.67
2016-05-26T12:49:40.024Z,21.68
2016-05-26T12:50:39.885Z,21.68
2016-05-26T12:51:41.091Z,21.66
2016-05-26T12:52:40.235Z,21.7
2016-05-26T12:53:40.222Z,21.68
2016-05-26T12:54:40.068Z,21.74
2016-05-26T12:55:40.008Z,21.73